»·PEaware :: N24SG KTOA-KCMA

N24SG :: KTOA-KCMA

FLIGHT INFORMATION

Flight Status: Arrived
Operator: Privately registered:
United States
More flights under this callsign
Pilot: Sander O. (16958)
Aircraft: CESSNA 208 CARAVAN
(C208)
More flights by this aircraft type
Origin: KTOA Zamperini
United States
Destination: KCMA Camarillo
United States
More flights between these airports :: More routes between these airports
Route: LIMBO V64 SMO125 SMO VNY
File this flight plan on PilotEdge
Remarks:
Altitude:
(Current/Filed)
4,000ft
Speed:
(Current/Filed)
0kts
Departed: 28-Dec-17 02:14 PM
Arrived: 28-Dec-17 02:45 PM
Distance/Time
Traveled:
45nm/0:30
Distance/Time
To Go:
Arrived

Flight Plot

Page will automatically refresh every two minutes.


Map Options




Map Legend


Flown Route
Filed Route
Departure Airport
Arrival Airport
Navaid (VOR, NDB)
Fix

Horizontal Profiles

Position Reports

Time Latitude Longitude Heading Altitude Ground
Speed
28-Dec-17 14:01 33.802168 -118.342282 34 108ft 0kts
28-Dec-17 14:02 33.802168 -118.342282 34 108ft 0kts
28-Dec-17 14:03 33.802168 -118.342282 34 108ft 0kts
28-Dec-17 14:04 33.802168 -118.342282 34 108ft 0kts
28-Dec-17 14:05 33.802168 -118.342282 34 108ft 0kts
28-Dec-17 14:06 33.802168 -118.342282 34 108ft 0kts
28-Dec-17 14:07 33.802168 -118.342282 34 108ft 0kts
28-Dec-17 14:08 33.802168 -118.342282 34 108ft 0kts
28-Dec-17 14:09 33.802168 -118.342282 34 108ft 0kts
28-Dec-17 14:10 33.802168 -118.342282 34 108ft 0kts
28-Dec-17 14:11 33.802168 -118.342282 34 108ft 0kts
28-Dec-17 14:12 33.802168 -118.342282 34 108ft 0kts
28-Dec-17 14:13 33.802168 -118.342282 34 108ft 0kts
28-Dec-17 14:14 33.802312 -118.342094 97 108ft 5kts
28-Dec-17 14:15 33.801078 -118.339306 114 108ft 1kts
28-Dec-17 14:16 33.798398 -118.335123 128 108ft 25kts
28-Dec-17 14:17 33.799118 -118.333271 37 108ft 0kts
28-Dec-17 14:18 33.799118 -118.333271 37 108ft 0kts
28-Dec-17 14:19 33.799118 -118.333271 37 108ft 0kts
28-Dec-17 14:20 33.804570 -118.340370 308 266ft 111kts
28-Dec-17 14:21 33.824705 -118.377241 299 2219ft 142kts
28-Dec-17 14:22 33.845980 -118.421404 300 2974ft 167kts
28-Dec-17 14:23 33.831403 -118.455927 155 3379ft 169kts
28-Dec-17 14:24 33.839180 -118.420280 14 3971ft 166kts
28-Dec-17 14:25 33.876492 -118.409490 12 3972ft 175kts
28-Dec-17 14:26 33.914833 -118.398590 12 3971ft 175kts
28-Dec-17 14:27 33.952758 -118.401042 318 3975ft 167kts
28-Dec-17 14:28 33.983296 -118.435270 316 3972ft 167kts
28-Dec-17 14:29 34.013996 -118.471717 311 3972ft 167kts
28-Dec-17 14:30 34.044610 -118.512829 311 3972ft 167kts
28-Dec-17 14:31 34.075692 -118.554499 311 3972ft 168kts
28-Dec-17 14:32 34.105192 -118.594049 311 3974ft 167kts
28-Dec-17 14:33 34.135293 -118.634495 311 3975ft 167kts
28-Dec-17 14:34 34.164523 -118.673758 310 3977ft 167kts
28-Dec-17 14:35 34.193864 -118.713018 310 3977ft 167kts
28-Dec-17 14:36 34.224546 -118.753691 311 3975ft 167kts
28-Dec-17 14:37 34.255215 -118.793884 311 3973ft 168kts
28-Dec-17 14:38 34.287594 -118.836540 311 3972ft 174kts
28-Dec-17 14:39 34.319849 -118.878513 313 3971ft 169kts
28-Dec-17 14:40 34.342831 -118.851244 125 3975ft 173kts
28-Dec-17 14:41 34.312869 -118.806917 131 3971ft 167kts
28-Dec-17 14:42 34.275835 -118.776432 170 3974ft 169kts
28-Dec-17 14:43 34.245922 -118.805874 251 3884ft 172kts
28-Dec-17 14:44 34.240876 -118.861353 262 3377ft 146kts
28-Dec-17 14:45 34.236802 -118.900744 260 3066ft 116kts
28-Dec-17 14:46 34.232356 -118.938679 259 2475ft 116kts
28-Dec-17 14:47 34.227666 -118.976572 259 1978ft 115kts
28-Dec-17 14:48 34.222898 -119.014004 259 1581ft 119kts
28-Dec-17 14:49 34.215197 -119.047874 251 719ft 88kts
28-Dec-17 14:50 34.213650 -119.074659 266 336ft 75kts
28-Dec-17 14:51 34.213751 -119.094234 264 82ft 24kts
28-Dec-17 14:52 34.212787 -119.095651 193 82ft 0kts
28-Dec-17 14:53 34.210992 -119.093002 92 82ft 25kts
28-Dec-17 14:54 34.210655 -119.088865 359 82ft 0kts
28-Dec-17 14:55 34.210655 -119.088865 359 82ft 0kts
28-Dec-17 14:56 34.210655 -119.088865 359 82ft 0kts
28-Dec-17 14:57 34.210655 -119.088865 359 82ft 0kts

Navigation Log

Ident Type
1. KTOA Airport
2. LIMBO Fix
3. SMO Navaid
4. VNY Navaid
5. KCMA Airport